Airfield :
LOGIN :

Register | Disclaimer

   EN    FR    IT 

 










Legend :    VFR   Marginal VFR   IFR   Intensive IFR   Very Intensive IFR
Visi :
Ceiling :
>= 8 km
>= 3000ft
5 to 8 km
1000 to 3000 ft
1500m to 5 km
500 to 1000 ft
800 to 1500m
200 to 500 ft
< 800m
< 200 ft
Symbols :   Thunderstorms  Fog  Heavy snow  Heavy precipitations  Wind > 20 kt
SIGMETs :     Misc.  Thunderstorms  Icing  Turbulence  Mountain Waves  Volcanic Ashes







- Airport Elevation : 1106 ft
- Download approach charts


LFSO - Nancy / Ochey

CURRENT METAR :
  • 230900Z AUTO 19020KT CAVOK 12/06 Q1009 TEMPO 20025G40KT

EXPIRED METARs :
  • 230830Z AUTO 19019KT CAVOK 12/06 Q1009 TEMPO 20025G40KT
  • 230800Z AUTO 19020KT CAVOK 12/06 Q1008
  • 230730Z AUTO 19019KT CAVOK 11/06 Q1008 TEMPO 20025G40KT
  • 230700Z AUTO 19022KT CAVOK 11/06 Q1007 TEMPO 20025G40KT
  • 230630Z AUTO 19023KT CAVOK 11/06 Q1007 TEMPO 20025G40KT

TAF TAF LFSO
Valid from the 23 at 09:00 until the 24 at 09:00 UTC


230800Z 2309/2409 19020G30KT CAVOK
TEMPO 2309/2311 20025G40KT
BECMG 2321/2323 20010G20KT
No reported NOTAMs for that airfield.
2 SIGMETs reported for the Reims FIR (LFEE) :
 
SIGMET 1  cancelation
LFEE SIGMET 3 VALID 230740/230900 LFPW
LFEE REIMS FIR/UIR CNL SIGMET 1 230500/230900=
Severe turbulence
LFEE SIGMET 2 VALID 230730/231100 LFPW
LFEE REIMS FIR/UIR SEV TURB FCST WI N4630 E00545 - N4630 E00445 - N4730 E00415 - N4830 E00530 - N4845 E00515 - N4930 E00600 - N4900 E00800 - N4800 E00715 - N4730 E00615 SFC/FL080 STNR NC=



MET'MAP, your aeronautical weather chart ! - Copyright ORBIFLY December 2007 - Disclaimer

ORBIFLY MET'MAP TEAM :

Programming & Development : Alexandra Zaïnal
Concept & Development : Baudouin d'Aumeries
Co-Development & Prog : Marc-Olivier Méhu
Technical & hardware support : Manuel Goepfert

Contact : metmap@orbifly.com




SOURCES & CREDITS :

   NOAA